Goffstown, NH (03045)

11:33 PM EST on January 19, 2017 (GMT -0500)
Black Brook Road | | Change Station

Elev 602 ft 43.06 °N, 71.58 °W | Updated 6 minutes ago

Partly Cloudy
Partly Cloudy
30.8 °F
Feels Like 31 °F
N
0.0
Wind Variable Wind from North
Gusts 1.0 mph

Today
High -- | Low -- °F
--% Chance of Precip.
Yesterday
High -- | Low -- °F
Precip. -- in
Pressure 30.08 in
Visibility 10.0 miles
Clouds Few 3000 ft
Windchill 31 °F
Dew Point 29 °F
Humidity 91%
Rainfall 0.46 in
Snow Depth Not available.
7:12 AM 4:42 PM
Waning Gibbous, 48% visible
METAR KMHT 200353Z 32005KT 10SM FEW030 01/M02 A3002 RMK AO2 SLP185 T00061022
Pressure 30.08 in
Visibility 10.0 miles
Clouds Few 3000 ft
Windchill 31 °F
Dew Point 29 °F
Humidity 91%
Rainfall 0.46 in
Snow Depth Not available.
7:12 AM 4:42 PM
Waning Gibbous, 48% visible
METAR KMHT 200353Z 32005KT 10SM FEW030 01/M02 A3002 RMK AO2 SLP185 T00061022

Get Your Daily Forecast Email!

Thanks for signing up!

Be on the lookout for a verification email in your inbox.

You'll start receiving the daily forecast at 8 AM.

×

10-Day Weather Forecast

Almanac

Astronomy

Jan. 19, 2017 Rise Set
Actual Time
Civil Twilight
Nautical Twilight
Astronomical Twilight
Moon
Length of Visible Light
Length of Day
Tomorrow will be .
, % of the Moon is Illuminated

Today's Extremes

State Highs State Lows

Community

WunderPhotos

Upload Photos

1,962,540 photos uploaded!

WunderBlog® & News

Nearby

Air Quality

  Air Quality AQ Index Pollutant
Not available.

Snow Depth

Station Depth Elevation

Earthquake Activity

City Distance Mag. Time & Date
Minimum magnitude displayed is 2.5.

Coastal Water Temperatures

Place Temperature

Stations

Nearby Weather Stations

Station Location Temp. Windchill Dew Point Humidity Wind Precip. Elev Updated Type
                   

Watches & Warnings

Small Craft for Hazardous Seas Advisory
Issued: 2:30 PM EST Jan. 19, 2017 – National Weather Service

... Small Craft Advisory for hazardous seas now in effect until
7 am EST Friday...

* seas... 4 to 6 feet.

Precautionary/preparedness actions...

A Small Craft Advisory for hazardous seas means that waves are
expected to be hazardous to small craft. Mariners should avoid
shoaling areas. Long period swell can sharpen into large breaking
waves in shoaling areas. It is not unusual for waves to break
much farther from shoaling areas than is normally experienced.
Remember... breaking waves can easily capsize even larger vessels.